Dulac, Louisiana
Current Conditions -  °F | °C
As of 3:15 AM on Monday 20 Oct 2014 (Local Time) from KHUM Reporting Station
Haze Haze  
Wind Chill: 59°   Ceiling: 700
Heat Index: 59°   Visibility: 1.5mi
Dew Point: 59°   Wind: 0mph
Humidity: 100%   Direction: NA
Pressure: 30.03"   Gusts: NA
Location:  29.39°N, 90.71°W
Report Text: KHUM 200815Z AUTO 00000KT 1 1/2SM BR VV007 15/15 A3003 RMK AO2 T01510151
Loading
Personal Weather Stations






























Interactive Weather Map
Tropical Storm Tracking
New forecast layout! Learn more

10-Day Weather Forecast

Advertisements
Track Severe Weather on mobile